Time;durP1;ratioP1;P1;durP2;ratioP2;P2;SDS_P1;SDS_P2;PMS_P1;PMS_P2;Temp;Humidity;BMP_temperature;BMP_pressure;BME280_temperature;BME280_humidity;BME280_pressure;Samples;Min_cycle;Max_cycle;Signal;HPM_P1;HPM_P2
2022/04/18 00:02:10;;;;;;;1.67;0.98;;;9.00;56.40;;;;;;5113841;28;20130;-69
2022/04/18 00:04:36;;;;;;;1.42;1.00;;;9.00;56.60;;;;;;5114260;28;20051;-69
2022/04/18 00:07:03;;;;;;;1.33;1.00;;;8.90;56.60;;;;;;5114823;28;20044;-69
2022/04/18 00:09:30;;;;;;;1.17;0.95;;;8.90;56.60;;;;;;5114646;28;20048;-69
2022/04/18 00:11:57;;;;;;;1.67;0.93;;;8.80;56.50;;;;;;5114216;28;20120;-69
2022/04/18 00:14:23;;;;;;;1.15;1.00;;;8.80;56.60;;;;;;5114490;28;20500;-69
2022/04/18 00:16:49;;;;;;;2.30;1.23;;;8.80;56.70;;;;;;5114194;28;20072;-69
2022/04/18 00:19:15;;;;;;;1.65;1.10;;;8.70;56.70;;;;;;5114332;28;20047;-69
2022/04/18 00:21:41;;;;;;;1.40;1.02;;;8.70;56.80;;;;;;5113987;28;20385;-70
2022/04/18 00:24:08;;;;;;;1.50;1.15;;;8.70;56.80;;;;;;5095682;28;20409;-69
2022/04/18 00:26:37;;;;;;;1.70;1.20;;;8.70;56.90;;;;;;5096001;28;20043;-69
2022/04/18 00:29:02;;;;;;;2.05;1.33;;;8.70;56.90;;;;;;5114034;28;20044;-70
2022/04/18 00:31:28;;;;;;;1.42;1.10;;;8.60;57.00;;;;;;5113915;28;20049;-69
2022/04/18 00:33:54;;;;;;;1.80;1.25;;;8.60;57.00;;;;;;5096112;28;20079;-69
2022/04/18 00:36:19;;;;;;;1.50;0.95;;;8.60;57.10;;;;;;5113787;28;20035;-69
2022/04/18 00:38:45;;;;;;;1.80;1.38;;;8.50;57.10;;;;;;5095480;28;20039;-69
2022/04/18 00:41:11;;;;;;;1.50;1.20;;;8.50;57.20;;;;;;5113828;28;20035;-69
2022/04/18 00:43:41;;;;;;;1.52;1.08;;;8.40;57.20;;;;;;5113799;28;20040;-69
2022/04/18 00:46:07;;;;;;;1.85;1.25;;;8.50;57.40;;;;;;5114181;28;20046;-70
2022/04/18 00:48:34;;;;;;;1.45;1.10;;;8.40;57.40;;;;;;5113756;28;20050;-69
2022/04/18 00:50:59;;;;;;;1.08;0.88;;;8.30;57.50;;;;;;5113486;28;20534;-69
2022/04/18 00:53:26;;;;;;;2.10;1.30;;;8.30;57.50;;;;;;5095593;28;20043;-69
2022/04/18 00:55:53;;;;;;;1.40;0.95;;;8.30;57.50;;;;;;5113592;28;20485;-69
2022/04/18 00:58:19;;;;;;;1.75;1.15;;;8.30;58.20;;;;;;5114065;28;20043;-69
2022/04/18 01:00:45;;;;;;;1.30;1.13;;;8.30;57.70;;;;;;5095124;28;20539;-70
2022/04/18 01:03:11;;;;;;;1.35;0.88;;;8.20;57.70;;;;;;5113671;28;20118;-69
2022/04/18 01:05:37;;;;;;;1.58;1.00;;;8.20;57.70;;;;;;5095857;28;20043;-69
2022/04/18 01:08:05;;;;;;;1.45;1.10;;;8.20;57.90;;;;;;5113993;28;20043;-69
2022/04/18 01:10:31;;;;;;;2.10;1.20;;;8.20;58.00;;;;;;5113683;28;20071;-69
2022/04/18 01:12:57;;;;;;;1.40;1.08;;;8.10;58.00;;;;;;5113196;28;20071;-69
2022/04/18 01:15:23;;;;;;;1.75;1.00;;;8.10;58.00;;;;;;5112975;28;20071;-69
2022/04/18 01:17:49;;;;;;;2.22;1.35;;;8.10;58.10;;;;;;5113253;28;20036;-69
2022/04/18 01:20:15;;;;;;;2.08;1.10;;;8.00;58.20;;;;;;5113270;28;20374;-69
2022/04/18 01:22:44;;;;;;;1.60;1.08;;;7.90;58.30;;;;;;5111421;28;20036;-69
2022/04/18 01:30:26;;;;;;;2.03;1.13;;;7.90;58.50;;;;;;5113110;28;20082;-69
2022/04/18 01:32:52;;;;;;;1.77;1.10;;;7.80;58.50;;;;;;5113483;28;20453;-69
2022/04/18 01:35:18;;;;;;;2.20;1.30;;;7.80;58.70;;;;;;5094987;28;20040;-69
2022/04/18 01:37:44;;;;;;;1.83;1.40;;;7.80;58.70;;;;;;5112732;28;20366;-69
2022/04/18 01:40:10;;;;;;;2.15;1.30;;;7.70;58.80;;;;;;5094573;28;20046;-69
2022/04/18 01:42:36;;;;;;;1.83;1.20;;;7.70;58.90;;;;;;5112929;28;20361;-70
2022/04/18 01:45:01;;;;;;;2.40;1.40;;;7.70;58.90;;;;;;5113398;28;20050;-70
2022/04/18 01:47:27;;;;;;;1.52;1.10;;;7.80;59.00;;;;;;5112877;28;20035;-69
2022/04/18 01:49:53;;;;;;;2.83;1.55;;;7.70;59.00;;;;;;5112820;28;20043;-69
2022/04/18 01:52:19;;;;;;;2.15;1.40;;;7.60;59.10;;;;;;5112568;28;20047;-69
2022/04/18 01:54:45;;;;;;;3.47;1.35;;;7.60;59.10;;;;;;5113226;28;20063;-70
2022/04/18 01:57:10;;;;;;;1.45;1.17;;;7.50;59.30;;;;;;5112940;28;20046;-69
2022/04/18 01:59:36;;;;;;;1.70;1.00;;;7.60;59.40;;;;;;5112529;28;20067;-69
2022/04/18 02:02:02;;;;;;;1.60;1.30;;;7.50;59.40;;;;;;5094469;28;20043;-69
2022/04/18 02:04:28;;;;;;;1.83;1.10;;;7.50;59.50;;;;;;5112542;28;20594;-69
2022/04/18 02:06:53;;;;;;;2.05;1.20;;;7.50;59.60;;;;;;5112530;28;20040;-69
2022/04/18 02:09:19;;;;;;;2.13;1.20;;;7.40;59.70;;;;;;5112426;28;20069;-69
2022/04/18 02:11:45;;;;;;;1.50;1.10;;;7.40;59.80;;;;;;5112870;28;20080;-69
2022/04/18 02:14:12;;;;;;;2.08;1.30;;;7.30;59.90;;;;;;5111976;28;20467;-69
2022/04/18 02:16:37;;;;;;;2.28;1.23;;;7.30;60.00;;;;;;5112386;28;20445;-69
2022/04/18 02:19:03;;;;;;;2.33;1.33;;;7.20;60.00;;;;;;5112380;28;20124;-69
2022/04/18 02:21:29;;;;;;;2.13;1.42;;;7.20;60.00;;;;;;5112812;28;20373;-69
2022/04/18 02:23:54;;;;;;;2.53;1.48;;;7.30;60.10;;;;;;5112267;28;20397;-69
2022/04/18 02:26:20;;;;;;;1.77;1.20;;;7.20;60.10;;;;;;5113900;28;20039;-70
2022/04/18 02:28:46;;;;;;;2.33;1.27;;;7.30;60.20;;;;;;5115797;28;20088;-69
2022/04/18 02:31:11;;;;;;;1.45;1.20;;;7.10;60.20;;;;;;5115756;28;20370;-69
2022/04/18 02:33:37;;;;;;;2.40;1.17;;;7.10;60.40;;;;;;5115838;28;20431;-69
2022/04/18 02:36:03;;;;;;;1.55;1.17;;;7.10;60.50;;;;;;5116130;28;20123;-69
2022/04/18 02:38:29;;;;;;;1.58;1.02;;;7.00;60.50;;;;;;5115666;28;20070;-69
2022/04/18 02:40:55;;;;;;;1.13;1.00;;;7.00;61.20;;;;;;5097659;28;20086;-69
2022/04/18 02:43:21;;;;;;;1.85;1.20;;;7.00;60.70;;;;;;5115780;28;20104;-69
2022/04/18 02:45:47;;;;;;;1.30;1.10;;;6.90;60.90;;;;;;5115478;28;20140;-69
2022/04/18 02:48:13;;;;;;;1.10;1.00;;;6.90;61.00;;;;;;5115485;28;20465;-69
2022/04/18 02:50:39;;;;;;;1.52;1.20;;;6.80;61.20;;;;;;5115917;28;20501;-69
2022/04/18 02:53:06;;;;;;;1.30;1.08;;;6.70;61.20;;;;;;5115649;28;20392;-69
2022/04/18 02:55:32;;;;;;;1.55;1.00;;;6.70;61.40;;;;;;5116011;28;20028;-70
2022/04/18 02:57:57;;;;;;;2.03;1.15;;;6.70;61.50;;;;;;5115736;28;20072;-69
2022/04/18 03:00:23;;;;;;;0.80;0.80;;;6.60;61.60;;;;;;5097887;28;20043;-69
2022/04/18 03:02:49;;;;;;;1.10;0.90;;;6.60;61.70;;;;;;5115420;28;20122;-69
2022/04/18 03:05:15;;;;;;;1.10;0.90;;;6.50;61.80;;;;;;5115837;28;20540;-69
2022/04/18 03:07:41;;;;;;;1.77;1.10;;;6.50;61.80;;;;;;5115513;28;20039;-69
2022/04/18 03:10:08;;;;;;;1.83;1.20;;;6.40;61.90;;;;;;5097517;28;20039;-69
2022/04/18 03:12:34;;;;;;;2.28;1.10;;;6.40;62.10;;;;;;5115510;28;20054;-69
2022/04/18 03:15:00;;;;;;;2.47;1.17;;;6.40;62.80;;;;;;5115493;28;20039;-69
2022/04/18 03:17:26;;;;;;;1.63;0.98;;;6.40;62.20;;;;;;5115279;28;20378;-69
2022/04/18 03:19:52;;;;;;;1.65;1.08;;;6.30;62.30;;;;;;5096784;28;20043;-70
2022/04/18 03:22:19;;;;;;;1.75;1.20;;;6.30;62.30;;;;;;5115207;28;20044;-69
2022/04/18 03:24:45;;;;;;;1.27;0.98;;;6.20;62.40;;;;;;5096908;28;20063;-70
2022/04/18 03:27:11;;;;;;;1.60;1.15;;;6.20;62.50;;;;;;5115054;28;20405;-69
2022/04/18 03:29:37;;;;;;;1.65;1.00;;;6.20;62.60;;;;;;5114887;28;20039;-69
2022/04/18 03:32:04;;;;;;;0.98;0.90;;;6.20;62.70;;;;;;5115009;28;20453;-69
2022/04/18 03:34:30;;;;;;;2.10;1.23;;;6.10;62.60;;;;;;5114910;28;20096;-69
2022/04/18 03:42:15;;;;;;;1.45;1.00;;;6.10;62.80;;;;;;5114696;28;20420;-69
2022/04/18 03:44:43;;;;;;;1.45;0.90;;;6.10;62.80;;;;;;5115597;28;20047;-69
2022/04/18 03:47:11;;;;;;;1.60;0.90;;;6.10;62.90;;;;;;5114760;28;20051;-69
2022/04/18 03:49:37;;;;;;;1.20;0.85;;;6.00;62.90;;;;;;5114920;28;20575;-69
2022/04/18 03:52:03;;;;;;;1.50;1.10;;;6.00;63.00;;;;;;5114338;28;20107;-69
2022/04/18 03:54:29;;;;;;;1.55;0.80;;;6.00;63.10;;;;;;5115068;28;20115;-69
2022/04/18 03:56:55;;;;;;;1.48;1.00;;;6.00;63.20;;;;;;5114994;28;20429;-69
2022/04/18 03:59:20;;;;;;;1.92;1.00;;;6.00;63.20;;;;;;5114912;28;20645;-69
2022/04/18 04:01:46;;;;;;;2.38;1.33;;;6.00;63.30;;;;;;5096223;28;20038;-70
2022/04/18 04:04:12;;;;;;;1.95;1.20;;;5.90;63.10;;;;;;5115340;28;20401;-70
2022/04/18 04:06:38;;;;;;;2.40;1.30;;;6.00;63.10;;;;;;5115185;28;20044;-69
2022/04/18 04:09:03;;;;;;;1.67;1.13;;;6.10;63.20;;;;;;5114842;28;20040;-69
2022/04/18 04:11:29;;;;;;;1.92;1.10;;;6.10;63.20;;;;;;5096403;28;20096;-69
2022/04/18 04:13:55;;;;;;;1.23;1.00;;;6.00;63.10;;;;;;5114416;28;20120;-69
2022/04/18 04:16:21;;;;;;;2.53;1.05;;;6.00;63.20;;;;;;5114358;28;20040;-69
2022/04/18 04:18:49;;;;;;;1.15;1.00;;;5.90;63.20;;;;;;5079537;28;20035;-69
2022/04/18 04:21:15;;;;;;;1.48;1.02;;;5.90;63.30;;;;;;5114548;28;20040;-70
2022/04/18 04:23:41;;;;;;;2.08;1.10;;;5.90;63.50;;;;;;5114958;28;20040;-69
2022/04/18 04:26:07;;;;;;;1.58;0.90;;;5.80;63.60;;;;;;5096734;28;20027;-69
2022/04/18 04:28:34;;;;;;;1.42;1.10;;;5.80;63.70;;;;;;5114571;28;20042;-69
2022/04/18 04:31:02;;;;;;;1.60;1.00;;;5.80;63.80;;;;;;5112466;28;20088;-70
2022/04/18 04:33:30;;;;;;;1.70;1.00;;;5.70;63.80;;;;;;5114084;28;20118;-70
2022/04/18 04:35:58;;;;;;;1.98;1.00;;;5.80;63.90;;;;;;5095855;28;20078;-70
2022/04/18 04:38:25;;;;;;;1.67;1.13;;;5.80;63.90;;;;;;5096785;28;20090;-70
2022/04/18 04:40:50;;;;;;;1.25;1.00;;;5.80;63.90;;;;;;5114543;28;20036;-70
2022/04/18 04:43:16;;;;;;;2.35;1.00;;;5.80;63.90;;;;;;5114718;28;20036;-70
2022/04/18 04:45:42;;;;;;;2.25;1.00;;;5.80;63.80;;;;;;5095746;28;20043;-69
2022/04/18 04:48:08;;;;;;;1.48;1.20;;;5.90;63.80;;;;;;5114065;28;20489;-70
2022/04/18 04:50:35;;;;;;;1.92;1.02;;;5.80;63.70;;;;;;5113830;28;20507;-70
2022/04/18 04:53:01;;;;;;;1.48;1.23;;;5.90;63.70;;;;;;5113947;28;20036;-70
2022/04/18 04:55:27;;;;;;;2.50;1.13;;;5.80;63.70;;;;;;5114587;28;20373;-70
2022/04/18 04:57:53;;;;;;;1.95;1.23;;;5.80;63.80;;;;;;5113684;28;20051;-69
2022/04/18 05:00:19;;;;;;;1.92;1.20;;;5.80;63.80;;;;;;5113760;28;20043;-69
2022/04/18 05:02:45;;;;;;;1.27;1.00;;;5.80;63.80;;;;;;5113477;28;20054;-69
2022/04/18 05:05:11;;;;;;;1.00;0.75;;;5.80;63.80;;;;;;5095695;28;20389;-69
2022/04/18 05:07:37;;;;;;;1.23;1.00;;;5.80;63.90;;;;;;5095375;28;20043;-69
2022/04/18 05:10:03;;;;;;;1.83;1.00;;;5.80;63.90;;;;;;5113654;28;20505;-69
2022/04/18 05:12:31;;;;;;;1.50;0.90;;;5.90;63.90;;;;;;5113658;28;20055;-69
2022/04/18 05:15:03;;;;;;;1.50;1.00;;;5.80;63.90;;;;;;5095632;28;20481;-69
2022/04/18 05:17:29;;;;;;;2.25;1.17;;;5.90;63.90;;;;;;5113660;28;20031;-69
2022/04/18 05:19:55;;;;;;;2.55;1.20;;;5.90;63.80;;;;;;5095363;28;20039;-69
2022/04/18 05:22:21;;;;;;;1.23;0.95;;;5.90;63.80;;;;;;5113749;28;20123;-69
2022/04/18 05:24:51;;;;;;;2.15;1.30;;;5.90;63.70;;;;;;5113259;28;20043;-69
2022/04/18 05:27:17;;;;;;;1.45;1.00;;;6.00;63.70;;;;;;5114058;28;20042;-69
2022/04/18 05:29:44;;;;;;;2.30;1.20;;;6.00;63.60;;;;;;5113458;28;20039;-69
2022/04/18 05:32:10;;;;;;;1.02;0.90;;;6.00;63.70;;;;;;5113244;28;20051;-70
2022/04/18 05:34:36;;;;;;;1.85;1.00;;;6.10;63.70;;;;;;5111609;28;20044;-70
2022/04/18 05:37:02;;;;;;;1.77;1.08;;;6.10;63.60;;;;;;5113131;28;20058;-70
2022/04/18 05:39:27;;;;;;;1.42;0.90;;;6.20;63.60;;;;;;5113164;28;20043;-70
2022/04/18 05:41:53;;;;;;;1.15;0.90;;;6.30;63.50;;;;;;5113346;28;20046;-69
2022/04/18 05:44:19;;;;;;;1.67;0.93;;;6.30;63.30;;;;;;5113396;28;20035;-70
2022/04/18 05:46:45;;;;;;;1.90;1.02;;;6.40;63.20;;;;;;5112901;28;20088;-69
2022/04/18 05:49:10;;;;;;;0.90;0.70;;;6.50;63.20;;;;;;5094814;28;20092;-70
2022/04/18 05:51:38;;;;;;;2.58;0.93;;;6.60;63.00;;;;;;5112910;28;20054;-69
2022/04/18 05:54:04;;;;;;;1.42;1.00;;;6.60;62.80;;;;;;5113446;28;20048;-70
2022/04/18 05:56:30;;;;;;;1.42;0.98;;;6.70;62.70;;;;;;5112875;28;20040;-70
2022/04/18 05:58:57;;;;;;;1.15;0.90;;;6.70;62.60;;;;;;5094736;28;20089;-70
2022/04/18 06:01:23;;;;;;;1.17;1.00;;;6.70;62.60;;;;;;5112061;28;20055;-70
2022/04/18 06:03:49;;;;;;;1.45;1.00;;;6.80;62.50;;;;;;5112786;28;20082;-69
2022/04/18 06:06:15;;;;;;;2.47;1.02;;;6.90;62.50;;;;;;5094479;28;20539;-69
2022/04/18 06:08:41;;;;;;;1.83;1.00;;;7.00;62.50;;;;;;5094701;28;20039;-70
2022/04/18 06:11:07;;;;;;;1.23;0.75;;;7.00;62.30;;;;;;5094544;28;20408;-70
2022/04/18 06:13:33;;;;;;;1.08;0.82;;;7.10;62.20;;;;;;5112489;28;20040;-70
2022/04/18 06:15:59;;;;;;;1.05;0.90;;;7.20;62.20;;;;;;5094488;28;20047;-69
2022/04/18 06:18:26;;;;;;;0.90;0.73;;;7.30;62.20;;;;;;5112710;28;20070;-69
2022/04/18 06:20:52;;;;;;;1.42;0.85;;;7.40;62.00;;;;;;5112727;28;20035;-70
2022/04/18 06:23:18;;;;;;;1.33;0.75;;;7.40;62.00;;;;;;5113191;28;20042;-70
2022/04/18 06:25:44;;;;;;;1.20;0.80;;;7.50;61.90;;;;;;5112544;28;20127;-70
2022/04/18 06:28:12;;;;;;;1.85;1.10;;;7.60;61.80;;;;;;5112420;28;20046;-70
2022/04/18 06:30:38;;;;;;;1.05;0.70;;;7.70;61.80;;;;;;5095098;28;20047;-69
2022/04/18 06:33:04;;;;;;;0.93;0.70;;;7.70;61.70;;;;;;5112222;28;20040;-69
2022/04/18 06:35:29;;;;;;;1.70;0.90;;;7.80;61.60;;;;;;5112403;28;20038;-70
2022/04/18 06:37:55;;;;;;;1.60;0.88;;;7.90;61.50;;;;;;5112283;28;20046;-69
2022/04/18 06:40:21;;;;;;;1.70;0.93;;;7.90;61.40;;;;;;5093942;28;20477;-70
2022/04/18 06:42:46;;;;;;;0.70;0.60;;;8.10;61.40;;;;;;5112382;28;20043;-70
2022/04/18 06:45:12;;;;;;;1.10;0.80;;;8.20;61.30;;;;;;5094255;28;20074;-70
2022/04/18 06:47:38;;;;;;;1.20;0.77;;;8.20;61.30;;;;;;5112897;28;20385;-70
2022/04/18 06:50:11;;;;;;;1.23;0.80;;;8.30;61.20;;;;;;5112268;28;20036;-69
2022/04/18 06:52:41;;;;;;;0.68;0.68;;;8.40;61.10;;;;;;5112258;28;20106;-70
2022/04/18 06:55:08;;;;;;;0.80;0.70;;;8.50;61.00;;;;;;5093868;28;20063;-70
2022/04/18 06:57:35;;;;;;;0.90;0.60;;;8.50;60.90;;;;;;5094594;28;20036;-70
2022/04/18 07:00:03;;;;;;;1.17;0.68;;;8.70;60.90;;;;;;5094177;28;20401;-70
2022/04/18 07:02:29;;;;;;;1.40;0.70;;;8.70;60.80;;;;;;5112176;28;20071;-70
2022/04/18 07:04:54;;;;;;;0.50;0.50;;;8.80;60.80;;;;;;5094008;28;20075;-70
2022/04/18 07:07:20;;;;;;;1.00;0.68;;;8.90;60.70;;;;;;5111803;28;20039;-69
2022/04/18 07:09:46;;;;;;;0.90;0.60;;;9.00;60.70;;;;;;5112111;28;20040;-70
2022/04/18 07:12:13;;;;;;;0.80;0.52;;;9.10;60.60;;;;;;5095383;28;20046;-70
2022/04/18 07:14:39;;;;;;;0.50;0.50;;;9.20;60.50;;;;;;5115526;28;20042;-70
2022/04/18 07:17:06;;;;;;;0.60;0.50;;;9.20;60.40;;;;;;5115475;28;20175;-70
2022/04/18 07:19:33;;;;;;;0.80;0.50;;;9.30;60.30;;;;;;5097474;28;20568;-71
2022/04/18 07:21:59;;;;;;;0.57;0.40;;;9.40;60.20;;;;;;5097204;28;20047;-71
2022/04/18 07:24:25;;;;;;;0.70;0.50;;;9.50;60.10;;;;;;5115406;28;20609;-70
2022/04/18 07:26:51;;;;;;;0.88;0.50;;;9.60;60.10;;;;;;5115560;28;20051;-70
2022/04/18 07:29:17;;;;;;;0.38;0.35;;;9.70;60.00;;;;;;5115194;28;20032;-70
2022/04/18 07:31:46;;;;;;;0.45;0.45;;;9.80;59.90;;;;;;5096950;28;20062;-70
2022/04/18 07:34:11;;;;;;;0.40;0.40;;;9.90;59.80;;;;;;5115039;28;20067;-70
2022/04/18 07:36:37;;;;;;;0.50;0.40;;;10.00;59.70;;;;;;5115002;28;20079;-70
2022/04/18 07:39:03;;;;;;;0.60;0.50;;;10.10;59.50;;;;;;5115100;28;20062;-70
2022/04/18 07:41:29;;;;;;;0.55;0.40;;;10.20;59.40;;;;;;5096999;28;20097;-70
2022/04/18 07:43:57;;;;;;;0.40;0.40;;;10.30;59.30;;;;;;5114935;28;20067;-70
2022/04/18 07:46:23;;;;;;;0.43;0.43;;;10.40;59.20;;;;;;5114721;28;20049;-70
2022/04/18 07:48:51;;;;;;;0.30;0.22;;;10.50;59.10;;;;;;5096783;28;20051;-70
2022/04/18 07:53:57;;;;;;;0.47;0.30;;;10.80;58.90;;;;;;5114808;28;20097;-70
2022/04/18 07:56:23;;;;;;;0.43;0.40;;;11.00;58.60;;;;;;5114954;28;20470;-70
2022/04/18 07:58:50;;;;;;;0.40;0.35;;;11.10;58.50;;;;;;5114646;28;20044;-70
2022/04/18 08:01:16;;;;;;;0.40;0.38;;;11.30;58.30;;;;;;5114817;28;20050;-70
2022/04/18 08:03:42;;;;;;;0.28;0.28;;;11.50;58.20;;;;;;5096994;28;20043;-70
2022/04/18 08:06:08;;;;;;;0.30;0.30;;;11.70;58.10;;;;;;5115038;28;20151;-70
2022/04/18 08:08:34;;;;;;;0.50;0.30;;;11.90;57.80;;;;;;5114928;28;20044;-70
2022/04/18 08:11:00;;;;;;;0.47;0.38;;;12.10;57.60;;;;;;5114757;28;20373;-70
2022/04/18 08:13:27;;;;;;;0.35;0.30;;;12.30;57.40;;;;;;5114989;28;20480;-70
2022/04/18 08:15:52;;;;;;;0.30;0.30;;;12.60;57.10;;;;;;5095087;28;20513;-70
2022/04/18 08:18:18;;;;;;;0.30;0.30;;;12.80;56.90;;;;;;5096905;28;20063;-70
2022/04/18 08:20:44;;;;;;;0.30;0.30;;;13.10;56.70;;;;;;5114887;28;20122;-70
2022/04/18 08:23:10;;;;;;;0.50;0.30;;;13.30;56.50;;;;;;5114043;28;20043;-70
2022/04/18 08:25:36;;;;;;;0.30;0.30;;;13.50;56.30;;;;;;5114478;28;20610;-70
2022/04/18 08:28:01;;;;;;;0.65;0.43;;;13.80;56.30;;;;;;5096864;28;20127;-71
2022/04/18 08:30:27;;;;;;;0.32;0.32;;;14.00;56.10;;;;;;5114555;28;20048;-70
2022/04/18 08:32:53;;;;;;;0.25;0.25;;;14.20;56.00;;;;;;5096029;28;20044;-70
2022/04/18 08:35:19;;;;;;;0.30;0.30;;;14.40;55.90;;;;;;5096565;28;20042;-70
2022/04/18 08:37:46;;;;;;;0.28;0.28;;;14.70;55.80;;;;;;5114949;28;20043;-69
2022/04/18 08:40:12;;;;;;;0.73;0.50;;;14.90;55.70;;;;;;5096189;28;20065;-68
2022/04/18 08:42:40;;;;;;;0.38;0.38;;;15.10;55.50;;;;;;5079121;28;20467;-70
2022/04/18 08:45:11;;;;;;;0.20;0.20;;;15.30;55.30;;;;;;5114338;28;20040;-69
2022/04/18 08:53:03;;;;;;;0.30;0.30;;;15.70;55.30;;;;;;5113821;28;20052;-69
2022/04/18 08:55:30;;;;;;;0.47;0.30;;;15.80;55.40;;;;;;5112261;28;20043;-69
2022/04/18 08:57:56;;;;;;;0.32;0.32;;;16.10;55.40;;;;;;5112179;28;20031;-70
2022/04/18 09:00:22;;;;;;;0.30;0.30;;;16.30;55.20;;;;;;5113762;28;20039;-70
2022/04/18 09:02:48;;;;;;;0.38;0.38;;;16.50;55.10;;;;;;5113683;28;20040;-70
2022/04/18 09:05:14;;;;;;;0.50;0.50;;;16.70;55.00;;;;;;5113809;28;20044;-69
2022/04/18 09:07:42;;;;;;;0.57;0.50;;;16.80;54.70;;;;;;5095710;28;20040;-69
2022/04/18 09:10:09;;;;;;;0.32;0.32;;;16.80;54.70;;;;;;5095733;28;20047;-69
2022/04/18 09:12:42;;;;;;;0.50;0.50;;;16.90;55.00;;;;;;5113522;28;20043;-69
2022/04/18 09:15:09;;;;;;;0.35;0.35;;;17.00;54.90;;;;;;5095257;28;20143;-69
2022/04/18 09:17:36;;;;;;;0.45;0.40;;;17.20;54.70;;;;;;5113391;28;20126;-69
2022/04/18 09:20:05;;;;;;;0.80;0.60;;;17.40;54.70;;;;;;5113880;28;20044;-69
2022/04/18 09:22:38;;;;;;;0.50;0.50;;;17.50;54.50;;;;;;5113769;28;20039;-69
2022/04/18 09:25:12;;;;;;;0.60;0.60;;;17.40;54.50;;;;;;5113146;28;20645;-70
2022/04/18 09:27:38;;;;;;;0.88;0.50;;;17.40;54.80;;;;;;5113950;28;20397;-69
2022/04/18 09:30:09;;;;;;;0.55;0.45;;;17.50;54.80;;;;;;5078096;28;20081;-70
2022/04/18 09:32:36;;;;;;;0.40;0.40;;;17.50;54.90;;;;;;5111937;28;20040;-69
2022/04/18 09:35:05;;;;;;;0.30;0.30;;;17.60;55.00;;;;;;5112768;28;20036;-70
2022/04/18 09:37:32;;;;;;;0.55;0.55;;;17.70;55.00;;;;;;5094541;28;20067;-69
2022/04/18 09:39:58;;;;;;;0.47;0.40;;;17.80;55.40;;;;;;5113580;28;20084;-69
2022/04/18 09:42:26;;;;;;;0.70;0.43;;;18.00;54.70;;;;;;5095250;28;20035;-69
2022/04/18 09:44:52;;;;;;;1.02;0.70;;;18.10;54.40;;;;;;5113490;28;20047;-70
2022/04/18 09:47:20;;;;;;;0.80;0.73;;;18.20;54.40;;;;;;5113619;28;20032;-71
2022/04/18 09:49:46;;;;;;;0.57;0.57;;;18.10;54.30;;;;;;5112870;28;20092;-70
2022/04/18 09:52:16;;;;;;;0.77;0.70;;;18.00;54.30;;;;;;5077754;28;20096;-70
2022/04/18 09:55:00;;;;;;;0.52;0.52;;;17.90;54.40;;;;;;5112854;28;20035;-69
2022/04/18 09:57:27;;;;;;;0.50;0.50;;;17.90;54.70;;;;;;5112810;28;20590;-69
2022/04/18 09:59:55;;;;;;;0.40;0.40;;;17.90;54.70;;;;;;5113190;28;20049;-69
2022/04/18 10:02:22;;;;;;;0.40;0.40;;;18.00;54.40;;;;;;5113553;28;20178;-69
2022/04/18 10:04:49;;;;;;;0.50;0.50;;;18.20;54.10;;;;;;5094913;28;20032;-69
2022/04/18 10:07:15;;;;;;;0.60;0.60;;;18.30;53.90;;;;;;5094733;28;20044;-70
2022/04/18 10:09:42;;;;;;;0.52;0.52;;;18.40;53.60;;;;;;5112847;28;20032;-69
2022/04/18 10:12:09;;;;;;;0.68;0.60;;;18.30;53.40;;;;;;5112836;28;20040;-70
2022/04/18 10:14:36;;;;;;;0.65;0.60;;;18.30;53.50;;;;;;5094684;28;20067;-69
2022/04/18 10:17:03;;;;;;;0.85;0.60;;;18.20;53.60;;;;;;5094686;28;20048;-69
2022/04/18 10:19:55;;;;;;;1.00;0.80;;;18.10;53.80;;;;;;5094675;28;20042;-69
2022/04/18 10:22:55;;;;;;;0.40;0.40;;;18.10;53.70;;;;;;5111332;28;20047;-69
2022/04/18 10:25:50;;;;;;;0.30;0.30;;;18.10;53.70;;;;;;5110331;28;20324;-69
2022/04/18 10:28:20;;;;;;;0.32;0.30;;;18.30;53.50;;;;;;5083285;28;20043;-69
2022/04/18 10:30:53;;;;;;;0.50;0.50;;;18.40;53.30;;;;;;5112316;28;20077;-69
2022/04/18 10:33:19;;;;;;;0.60;0.60;;;18.60;53.10;;;;;;5094184;28;20047;-70
2022/04/18 10:36:03;;;;;;;0.43;0.43;;;18.70;52.70;;;;;;5112670;28;20040;-70
2022/04/18 10:38:33;;;;;;;0.47;0.47;;;18.60;52.50;;;;;;5076745;28;20102;-69
2022/04/18 10:43:58;;;;;;;0.40;0.40;;;18.80;52.50;;;;;;5112361;28;20304;-69
2022/04/18 10:46:24;;;;;;;0.50;0.50;;;18.70;52.40;;;;;;5110454;28;20040;-69
2022/04/18 10:48:58;;;;;;;0.60;0.60;;;18.70;52.50;;;;;;5115791;28;20073;-68
2022/04/18 10:51:29;;;;;;;1.45;0.65;;;18.80;52.20;;;;;;5115970;28;20039;-69
2022/04/18 10:54:15;;;;;;;0.70;0.70;;;18.70;52.00;;;;;;5115565;28;20048;-69
2022/04/18 10:56:53;;;;;;;0.38;0.38;;;18.60;51.90;;;;;;5096509;28;20164;-69
2022/04/18 10:59:22;;;;;;;0.47;0.47;;;18.60;52.20;;;;;;5096623;28;20130;-68
2022/04/18 11:01:48;;;;;;;0.60;0.60;;;18.60;52.00;;;;;;5115787;28;20488;-69
2022/04/18 11:04:15;;;;;;;0.73;0.55;;;18.50;51.90;;;;;;5115734;28;20216;-68
2022/04/18 11:06:45;;;;;;;0.90;0.68;;;18.50;51.80;;;;;;5097295;28;20396;-69
2022/04/18 11:09:14;;;;;;;0.85;0.60;;;18.50;51.70;;;;;;5097911;28;20114;-69
2022/04/18 11:11:47;;;;;;;0.50;0.47;;;18.60;51.70;;;;;;5115930;28;20039;-69
2022/04/18 11:14:17;;;;;;;0.40;0.40;;;18.70;51.40;;;;;;5114462;28;20438;-69
2022/04/18 11:16:52;;;;;;;1.10;0.47;;;18.80;51.10;;;;;;5115344;28;20470;-69
2022/04/18 11:19:20;;;;;;;1.45;0.60;;;18.90;50.60;;;;;;5114525;28;20112;-69
2022/04/18 11:22:07;;;;;;;0.50;0.50;;;18.90;50.40;;;;;;5115667;28;20043;-69
2022/04/18 11:24:54;;;;;;;0.88;0.60;;;19.00;50.20;;;;;;5100659;28;20493;-69
2022/04/18 11:27:22;;;;;;;0.40;0.40;;;18.90;50.20;;;;;;5101171;28;20461;-69
2022/04/18 11:29:56;;;;;;;0.60;0.60;;;19.00;50.30;;;;;;5115809;28;20054;-69
2022/04/18 11:32:24;;;;;;;0.55;0.43;;;19.00;50.10;;;;;;5115088;28;20131;-69
2022/04/18 11:34:52;;;;;;;0.45;0.43;;;19.10;50.00;;;;;;5096815;28;20040;-69
2022/04/18 11:37:23;;;;;;;0.68;0.50;;;19.20;49.90;;;;;;5115325;28;20089;-69
2022/04/18 11:39:51;;;;;;;0.50;0.40;;;19.20;49.70;;;;;;5114984;28;20049;-69
2022/04/18 11:42:19;;;;;;;0.47;0.40;;;19.20;49.50;;;;;;5115114;28;20067;-70
2022/04/18 11:44:48;;;;;;;1.70;0.50;;;19.30;49.60;;;;;;5115195;28;20060;-69
2022/04/18 11:47:20;;;;;;;0.60;0.60;;;19.40;49.40;;;;;;5096688;28;20042;-69
2022/04/18 11:49:46;;;;;;;0.80;0.70;;;19.50;49.30;;;;;;5113601;28;20039;-69
2022/04/18 11:52:21;;;;;;;0.60;0.60;;;19.40;49.10;;;;;;5114903;28;20384;-69
2022/04/18 11:55:00;;;;;;;0.82;0.60;;;19.50;49.10;;;;;;5113649;28;20047;-69
2022/04/18 11:57:29;;;;;;;0.63;0.45;;;19.50;49.00;;;;;;5095932;28;20131;-69
2022/04/18 11:59:56;;;;;;;0.40;0.40;;;19.50;49.00;;;;;;5113719;28;20042;-69
2022/04/18 12:07:42;;;;;;;0.75;0.60;;;19.80;48.80;;;;;;5114714;28;20039;-70
2022/04/18 12:10:26;;;;;;;0.57;0.43;;;19.80;48.70;;;;;;5114814;28;20032;-70
2022/04/18 12:12:53;;;;;;;0.50;0.50;;;19.90;48.60;;;;;;5113265;28;20040;-69
2022/04/18 12:15:28;;;;;;;0.70;0.70;;;19.90;48.70;;;;;;5115205;28;20039;-69
2022/04/18 12:17:55;;;;;;;0.55;0.52;;;19.90;48.80;;;;;;5114817;28;20035;-70
2022/04/18 12:20:26;;;;;;;0.95;0.60;;;20.00;48.60;;;;;;5114688;28;20062;-70
2022/04/18 12:22:58;;;;;;;0.60;0.60;;;20.00;48.50;;;;;;5113100;28;20086;-70
2022/04/18 12:25:27;;;;;;;0.40;0.40;;;20.00;48.40;;;;;;5113355;28;20536;-70
2022/04/18 12:27:53;;;;;;;0.52;0.43;;;20.00;48.50;;;;;;5114304;28;20039;-70
2022/04/18 12:30:20;;;;;;;0.90;0.50;;;19.90;48.40;;;;;;5114441;28;20088;-70
2022/04/18 12:32:47;;;;;;;0.47;0.47;;;19.90;48.50;;;;;;5114669;28;20113;-69
2022/04/18 12:35:16;;;;;;;0.60;0.60;;;20.00;48.50;;;;;;5114472;28;20035;-69
2022/04/18 12:37:46;;;;;;;0.73;0.60;;;20.00;48.40;;;;;;5096206;28;20039;-70
2022/04/18 12:40:14;;;;;;;1.17;0.50;;;19.90;48.40;;;;;;5114192;28;20076;-70
2022/04/18 12:42:40;;;;;;;0.50;0.50;;;19.90;48.40;;;;;;5095815;28;20071;-70
2022/04/18 12:45:06;;;;;;;0.50;0.50;;;19.80;48.40;;;;;;5114249;28;20097;-70
2022/04/18 12:47:33;;;;;;;0.43;0.43;;;19.90;48.60;;;;;;5079048;28;20032;-70
2022/04/18 12:50:08;;;;;;;0.50;0.50;;;19.90;48.50;;;;;;5114512;28;20040;-70
2022/04/18 12:52:34;;;;;;;0.70;0.68;;;20.00;48.40;;;;;;5113826;28;20044;-69
2022/04/18 12:55:07;;;;;;;0.30;0.30;;;19.90;48.30;;;;;;5114015;28;20046;-70
2022/04/18 12:57:33;;;;;;;0.90;0.65;;;19.90;48.30;;;;;;5113960;28;20043;-69
2022/04/18 13:00:14;;;;;;;1.75;0.50;;;20.00;48.30;;;;;;5113979;28;20116;-69
2022/04/18 13:03:01;;;;;;;0.35;0.35;;;20.10;48.30;;;;;;5114289;28;20080;-69
2022/04/18 13:05:28;;;;;;;0.40;0.40;;;20.10;48.30;;;;;;5112394;28;20127;-70
2022/04/18 13:08:02;;;;;;;0.40;0.40;;;20.10;48.20;;;;;;5096080;28;20465;-70
2022/04/18 13:10:30;;;;;;;0.50;0.50;;;20.00;48.00;;;;;;5094009;28;20055;-70
2022/04/18 13:13:01;;;;;;;0.40;0.40;;;20.00;48.10;;;;;;5113714;28;20040;-68
2022/04/18 13:15:28;;;;;;;0.30;0.30;;;20.00;48.10;;;;;;5113766;28;20054;-69
2022/04/18 13:18:04;;;;;;;0.50;0.50;;;19.90;48.20;;;;;;5113871;28;20040;-68
2022/04/18 13:20:32;;;;;;;0.30;0.30;;;19.90;48.20;;;;;;5113533;28;20032;-68
2022/04/18 13:22:58;;;;;;;0.40;0.40;;;20.00;48.20;;;;;;5113553;28;20485;-69